Time;durP1;ratioP1;P1;durP2;ratioP2;P2;SDS_P1;SDS_P2;PMS_P1;PMS_P2;Temp;Humidity;BMP_temperature;BMP_pressure;BME280_temperature;BME280_humidity;BME280_pressure;Samples;Min_cycle;Max_cycle;Signal;HPM_P1;HPM_P2
2021/04/21 00:01:37;;;;;;;;;;;;;;;9.63;55.53;94889.41;5097812;22;19918;-81
2021/04/21 00:04:03;;;;;;;;;;;;;;;9.63;55.23;94887.59;4974599;28;20004;-82
2021/04/21 00:06:29;;;;;;;;;;;;;;;9.59;55.27;94883.84;4973602;28;20048;-81
2021/04/21 00:08:54;;;;;;;;;;;;;;;9.54;55.20;94875.94;4975590;28;19928;-82
2021/04/21 00:11:20;;;;;;;;;;;;;;;9.53;55.00;94879.56;4958190;28;20360;-82
2021/04/21 00:13:45;;;;;;;;;;;;;;;9.49;55.02;94873.22;4974309;28;20385;-82
2021/04/21 00:16:12;;;;;;;;;;;;;;;9.46;55.22;94880.69;4974483;28;19937;-81
2021/04/21 00:18:46;;;;;;;;;;;;;;;9.45;55.72;94881.69;4973793;28;19961;-82
2021/04/21 00:21:11;;;;;;;;;;;;;;;9.44;55.62;94878.31;4993849;23;19930;-81
2021/04/21 00:23:37;;;;;;;;;;;;;;;9.39;55.93;94878.16;4976138;28;19949;-82
2021/04/21 00:26:02;;;;;;;;;;;;;;;9.43;55.91;94875.91;4989271;28;20399;-81
2021/04/21 00:28:28;;;;;;;;;;;;;;;9.45;55.56;94877.28;4983702;28;20397;-81
2021/04/21 00:30:54;;;;;;;;;;;;;;;9.40;55.31;94879.75;4965670;28;20401;-80
2021/04/21 00:33:19;;;;;;;;;;;;;;;9.45;54.76;94881.69;4980872;28;19922;-80
2021/04/21 00:35:45;;;;;;;;;;;;;;;9.48;54.64;94882.03;4979991;28;19925;-80
2021/04/21 00:40:49;;;;;;;;;;;;;;;9.57;54.05;94885.88;4991981;28;19983;-80
2021/04/21 00:43:53;;;;;;;;;;;;;;;9.59;53.98;94878.66;4979741;28;19925;-81
2021/04/21 00:46:19;;;;;;;;;;;;;;;9.62;53.68;94870.44;4932849;29;20414;-81
2021/04/21 00:49:03;;;;;;;;;;;;;;;9.56;54.30;94884.28;4933286;29;19958;-81
2021/04/21 00:51:29;;;;;;;;;;;;;;;9.62;53.83;94877.44;4957757;28;20012;-82
2021/04/21 00:54:14;;;;;;;;;;;;;;;9.56;53.97;94881.69;5078898;22;20012;-81
2021/04/21 00:56:58;;;;;;;;;;;;;;;9.53;54.02;94879.56;4994499;28;19925;-81
2021/04/21 00:59:42;;;;;;;;;;;;;;;9.42;54.78;94882.91;4973225;28;20357;-81
2021/04/21 01:02:07;;;;;;;;;;;;;;;9.45;54.65;94881.69;4972617;28;19918;-82
2021/04/21 01:07:14;;;;;;;;;;;;;;;9.41;54.44;94881.31;4972909;28;19945;-81
2021/04/21 01:09:39;;;;;;;;;;;;;;;9.48;54.64;94871.66;4997951;23;19928;-80
2021/04/21 01:14:47;;;;;;;;;;;;;;;9.66;53.95;94888.16;5103563;22;19945;-80
2021/04/21 01:17:13;;;;;;;;;;;;;;;9.72;53.74;94882.06;4992052;28;19922;-80
2021/04/21 01:19:44;;;;;;;;;;;;;;;9.68;54.52;94880.94;4991438;28;19967;-80
2021/04/21 01:25:04;;;;;;;;;;;;;;;9.69;54.11;94882.50;5003303;28;19975;-81
2021/04/21 01:27:45;;;;;;;;;;;;;;;9.66;53.89;94888.16;5006118;28;19996;-81
2021/04/21 01:30:11;;;;;;;;;;;;;;;9.58;54.22;94881.47;5004551;28;20039;-82
2021/04/21 01:32:36;;;;;;;;;;;;;;;9.56;54.74;94879.09;5001223;28;20420;-82
2021/04/21 01:35:01;;;;;;;;;;;;;;;9.49;55.21;94883.63;5001131;28;20435;-82
2021/04/21 01:37:28;;;;;;;;;;;;;;;9.32;55.99;94887.88;5021208;28;19917;-81
2021/04/21 01:39:57;;;;;;;;;;;;;;;9.25;56.37;94880.16;5005794;28;20377;-81
2021/04/21 01:42:23;;;;;;;;;;;;;;;9.14;56.78;94880.13;5002296;28;19928;-81
2021/04/21 01:44:49;;;;;;;;;;;;;;;9.08;57.34;94878.41;5020369;28;19981;-82
2021/04/21 01:47:18;;;;;;;;;;;;;;;9.08;57.62;94886.97;5001982;28;20136;-82
2021/04/21 01:49:53;;;;;;;;;;;;;;;9.01;57.43;94884.47;5003590;28;20019;-81
2021/04/21 01:52:21;;;;;;;;;;;;;;;9.00;57.63;94880.31;5087193;23;19925;-82
2021/04/21 01:54:46;;;;;;;;;;;;;;;8.99;57.89;94883.91;5007202;28;20001;-81
2021/04/21 01:57:12;;;;;;;;;;;;;;;8.97;57.91;94891.13;5002476;28;19918;-81
2021/04/21 01:59:38;;;;;;;;;;;;;;;8.96;58.58;94889.53;5001096;28;19917;-81
2021/04/21 02:02:08;;;;;;;;;;;;;;;8.95;58.80;94887.19;5012731;23;19961;-80
2021/04/21 02:04:33;;;;;;;;;;;;;;;8.91;58.92;94886.78;5068952;22;19941;-80
2021/04/21 02:07:01;;;;;;;;;;;;;;;8.85;59.36;94885.09;4980769;28;19992;-80
2021/04/21 02:09:45;;;;;;;;;;;;;;;8.81;59.71;94891.72;4983325;28;19925;-81
2021/04/21 02:12:37;;;;;;;;;;;;;;;8.81;59.65;94886.53;5061110;23;20317;31
2021/04/21 02:15:02;;;;;;;;;;;;;;;8.86;59.95;94889.25;4949414;28;19987;-81
2021/04/21 02:17:46;;;;;;;;;;;;;;;8.90;59.74;94890.41;4979043;23;20451;-80
2021/04/21 02:20:19;;;;;;;;;;;;;;;8.89;59.86;94888.03;5007258;28;19940;-80
2021/04/21 02:22:58;;;;;;;;;;;;;;;8.84;60.19;94901.66;5013052;28;19918;-79
2021/04/21 02:25:26;;;;;;;;;;;;;;;8.85;59.90;94895.47;4975537;28;19917;-81
2021/04/21 02:28:01;;;;;;;;;;;;;;;8.88;59.84;94892.44;4990118;28;19918;-82
2021/04/21 02:30:29;;;;;;;;;;;;;;;8.91;59.31;94899.75;5014551;23;19932;-81
2021/04/21 02:33:00;;;;;;;;;;;;;;;8.92;59.31;94901.34;4994480;28;19918;-81
2021/04/21 02:35:37;;;;;;;;;;;;;;;8.98;59.46;94910.06;5019812;22;20393;-83
2021/04/21 02:38:10;;;;;;;;;;;;;;;9.00;58.72;94906.25;4985505;28;19982;-82
2021/04/21 02:40:36;;;;;;;;;;;;;;;8.94;58.19;94909.69;4964115;28;20016;-82
2021/04/21 02:43:20;;;;;;;;;;;;;;;8.90;58.28;94910.34;5111524;22;19953;-82
2021/04/21 02:45:56;;;;;;;;;;;;;;;8.91;58.28;94901.56;4989033;28;19925;-81
2021/04/21 02:51:50;;;;;;;;;;;;;;;8.87;58.46;94911.59;4962788;28;19945;-82
2021/04/21 02:54:28;;;;;;;;;;;;;;;8.85;58.96;94908.44;5003425;22;19926;-82
2021/04/21 02:57:07;;;;;;;;;;;;;;;8.89;58.76;94909.56;4990164;28;19918;-82
2021/04/21 02:59:34;;;;;;;;;;;;;;;8.97;59.09;94916.28;4992191;28;19925;-81
2021/04/21 03:01:59;;;;;;;;;;;;;;;9.03;58.69;94911.00;4992075;28;20424;-82
2021/04/21 03:04:25;;;;;;;;;;;;;;;9.16;58.75;94909.25;4993723;28;19918;-82
2021/04/21 03:06:50;;;;;;;;;;;;;;;9.24;58.75;94907.13;4975975;28;19918;-82
2021/04/21 03:09:21;;;;;;;;;;;;;;;9.42;58.38;94914.03;4993609;28;19918;-82
2021/04/21 03:11:46;;;;;;;;;;;;;;;9.48;57.58;94913.19;4999516;28;19925;-80
2021/04/21 03:14:21;;;;;;;;;;;;;;;9.49;57.63;94919.94;5007479;28;19918;-82
2021/04/21 03:16:47;;;;;;;;;;;;;;;9.43;57.65;94915.63;5007037;28;19921;-81
2021/04/21 03:19:13;;;;;;;;;;;;;;;9.32;58.38;94917.19;4992770;28;19968;-82
2021/04/21 03:21:43;;;;;;;;;;;;;;;9.29;58.79;94916.84;4990180;28;19928;-80
2021/04/21 03:24:33;;;;;;;;;;;;;;;9.25;58.54;94916.47;5004443;28;19924;-81
2021/04/21 03:27:24;;;;;;;;;;;;;;;9.30;58.40;94910.66;5004583;28;19918;-80
2021/04/21 03:29:49;;;;;;;;;;;;;;;9.36;58.26;94917.53;4996360;28;19922;-80
2021/04/21 03:32:19;;;;;;;;;;;;;;;9.41;58.38;94928.03;5001858;28;19972;-80
2021/04/21 03:34:44;;;;;;;;;;;;;;;9.36;58.53;94927.91;4991235;28;19922;-81
2021/04/21 03:37:14;;;;;;;;;;;;;;;9.24;59.01;94933.06;5001161;28;19976;-81
2021/04/21 03:39:42;;;;;;;;;;;;;;;9.21;58.69;94932.72;5055100;23;19916;-81
2021/04/21 03:42:07;;;;;;;;;;;;;;;9.16;59.07;94937.78;5047570;23;19922;-82
2021/04/21 03:44:33;;;;;;;;;;;;;;;9.13;59.10;94936.41;4984057;28;19921;-82
2021/04/21 03:46:58;;;;;;;;;;;;;;;9.13;59.19;94935.63;4998905;28;20329;-81
2021/04/21 03:49:23;;;;;;;;;;;;;;;9.13;58.67;94926.03;4983881;28;19918;-83
2021/04/21 03:51:48;;;;;;;;;;;;;;;9.13;59.39;94930.44;4999616;28;19972;-82
2021/04/21 03:54:14;;;;;;;;;;;;;;;9.24;58.88;94932.28;4986345;28;20404;-81
2021/04/21 03:56:39;;;;;;;;;;;;;;;9.41;58.37;94943.59;4984310;28;19961;-82
2021/04/21 03:59:04;;;;;;;;;;;;;;;9.59;57.63;94943.53;4983961;28;19922;-83
2021/04/21 04:01:29;;;;;;;;;;;;;;;9.76;57.86;94941.13;4983533;28;19940;-82
2021/04/21 04:03:55;;;;;;;;;;;;;;;10.28;55.87;94943.91;4992587;28;19960;-81
2021/04/21 04:06:41;;;;;;;;;;;;;;;10.94;54.41;94947.91;4999340;28;20420;-83
2021/04/21 04:09:07;;;;;;;;;;;;;;;11.74;51.89;94947.03;5036470;22;20484;-82
2021/04/21 04:11:49;;;;;;;;;;;;;;;12.48;49.37;94952.88;4998728;23;19969;-82
2021/04/21 04:14:21;;;;;;;;;;;;;;;12.61;48.88;94957.75;5002775;28;19917;-82
2021/04/21 04:16:46;;;;;;;;;;;;;;;12.02;49.99;94957.41;4968041;28;19922;-82
2021/04/21 04:19:12;;;;;;;;;;;;;;;11.48;51.87;94958.00;4983540;28;19926;-82
2021/04/21 04:21:37;;;;;;;;;;;;;;;11.08;53.59;94958.84;4985906;28;19926;-81
2021/04/21 04:24:04;;;;;;;;;;;;;;;10.72;54.23;94965.13;4984313;28;19921;-81
2021/04/21 04:28:58;;;;;;;;;;;;;;;10.29;56.53;94973.28;5077709;22;19984;-81
2021/04/21 04:31:23;;;;;;;;;;;;;;;10.01;57.34;94968.72;4981277;23;20395;-81
2021/04/21 04:33:49;;;;;;;;;;;;;;;9.89;57.90;94971.28;5144497;22;19928;-80
2021/04/21 04:36:14;;;;;;;;;;;;;;;9.75;58.21;94981.06;4986035;28;19946;-80
2021/04/21 04:38:42;;;;;;;;;;;;;;;9.67;58.60;94971.00;5044072;22;19921;-88
2021/04/21 04:41:14;;;;;;;;;;;;;;;9.55;59.28;94978.75;5030596;23;20566;-81
2021/04/21 04:43:39;;;;;;;;;;;;;;;9.61;59.54;94979.69;5042155;22;20024;-80
2021/04/21 04:46:05;;;;;;;;;;;;;;;9.79;59.07;94981.44;4977314;28;19957;-82
2021/04/21 04:48:36;;;;;;;;;;;;;;;9.93;58.72;94990.63;4998098;23;19922;-81
2021/04/21 04:51:01;;;;;;;;;;;;;;;10.17;58.12;94988.84;4981686;28;20299;-81
2021/04/21 04:53:30;;;;;;;;;;;;;;;10.33;57.15;94992.63;4990386;28;19972;-81
2021/04/21 04:55:55;;;;;;;;;;;;;;;10.50;56.70;94993.53;4951916;28;19922;-81
2021/04/21 04:58:21;;;;;;;;;;;;;;;10.63;56.99;94992.50;4961354;28;19925;-78
2021/04/21 05:00:47;;;;;;;;;;;;;;;10.96;55.85;94997.09;4965233;28;19922;-79
2021/04/21 05:03:24;;;;;;;;;;;;;;;11.52;53.73;94998.97;4962816;28;20405;-79
2021/04/21 05:05:56;;;;;;;;;;;;;;;12.67;50.74;95007.38;4964336;28;20056;-80
2021/04/21 05:08:28;;;;;;;;;;;;;;;12.89;50.10;94997.78;4990417;23;19973;-79
2021/04/21 05:11:03;;;;;;;;;;;;;;;13.41;49.10;94992.16;4985209;28;19918;-79
2021/04/21 05:13:33;;;;;;;;;;;;;;;14.56;45.98;95003.16;4972477;28;19921;-80
2021/04/21 05:16:04;;;;;;;;;;;;;;;14.66;44.92;95003.25;4958287;28;19944;-81
2021/04/21 05:18:35;;;;;;;;;;;;;;;13.91;46.70;95004.19;5044781;23;19936;-80
2021/04/21 05:21:13;;;;;;;;;;;;;;;13.60;47.55;95009.09;5005150;28;19921;-82
2021/04/21 05:23:38;;;;;;;;;;;;;;;13.63;47.44;95011.22;5006245;28;19921;-78
2021/04/21 05:26:13;;;;;;;;;;;;;;;13.74;46.89;95012.91;5005311;28;19939;-80
2021/04/21 05:28:58;;;;;;;;;;;;;;;13.78;47.46;95018.41;5002484;28;19921;-79
2021/04/21 05:31:42;;;;;;;;;;;;;;;14.11;46.76;95017.44;5016873;28;19917;-78
2021/04/21 05:34:33;;;;;;;;;;;;;;;14.85;44.61;95021.94;5003272;28;19925;-79
2021/04/21 05:37:01;;;;;;;;;;;;;;;15.71;42.59;95018.94;5000683;28;19924;-80
2021/04/21 05:42:19;;;;;;;;;;;;;;;16.51;41.01;95023.47;5114610;22;20128;-80
2021/04/21 05:45:03;;;;;;;;;;;;;;;15.81;41.35;95009.25;4984369;28;20064;-80
2021/04/21 05:47:29;;;;;;;;;;;;;;;15.29;42.51;95014.56;5021119;23;19918;-78
2021/04/21 05:50:13;;;;;;;;;;;;;;;15.01;43.20;95021.00;5006867;28;20020;-79
2021/04/21 05:52:57;;;;;;;;;;;;;;;14.59;44.37;95018.34;5008326;28;19922;-80
2021/04/21 05:55:38;;;;;;;;;;;;;;;14.22;44.65;95021.72;5018024;28;19925;-80
2021/04/21 05:58:22;;;;;;;;;;;;;;;13.79;45.49;95020.00;4998796;28;19933;-80
2021/04/21 06:01:06;;;;;;;;;;;;;;;13.49;46.75;95025.69;4999277;28;19925;-81
2021/04/21 06:03:33;;;;;;;;;;;;;;;13.30;47.30;95030.44;4999508;28;19926;-81
2021/04/21 06:06:02;;;;;;;;;;;;;;;13.08;47.99;95040.84;5005795;28;19933;-81
2021/04/21 06:08:28;;;;;;;;;;;;;;;13.44;48.05;95036.09;5487078;22;20145;-82
2021/04/21 06:10:53;;;;;;;;;;;;;;;14.40;45.87;95031.81;4984057;28;20390;-81
2021/04/21 06:13:18;;;;;;;;;;;;;;;14.97;42.91;95046.13;4984096;28;20370;-81
2021/04/21 06:15:44;;;;;;;;;;;;;;;15.28;42.46;95032.09;4966478;28;20000;-80
2021/04/21 06:18:09;;;;;;;;;;;;;;;15.61;42.05;95041.44;4981494;28;20390;-81
2021/04/21 06:20:36;;;;;;;;;;;;;;;15.98;40.72;95037.88;5012103;28;19922;-81
2021/04/21 06:23:03;;;;;;;;;;;;;;;15.51;41.99;95040.59;5012787;28;19928;-80
2021/04/21 06:25:28;;;;;;;;;;;;;;;15.73;41.56;95043.06;4981084;28;19917;-79
2021/04/21 06:28:06;;;;;;;;;;;;;;;15.59;41.68;95046.16;5006457;28;20018;-79
2021/04/21 06:30:34;;;;;;;;;;;;;;;15.55;41.55;95047.69;4982293;28;19922;-79
2021/04/21 06:33:00;;;;;;;;;;;;;;;15.64;41.36;95039.38;4964747;28;20008;-79
2021/04/21 06:35:28;;;;;;;;;;;;;;;15.55;41.69;95045.06;5008784;28;19976;-80
2021/04/21 06:37:53;;;;;;;;;;;;;;;14.54;43.21;95044.50;4983183;28;19917;-79
2021/04/21 06:40:19;;;;;;;;;;;;;;;14.44;44.21;95042.59;4982943;28;19965;-79
2021/04/21 06:42:46;;;;;;;;;;;;;;;14.64;43.57;95047.19;5008640;28;19928;-80
2021/04/21 06:45:11;;;;;;;;;;;;;;;14.59;43.99;95050.56;4989666;28;19917;-76
2021/04/21 06:47:36;;;;;;;;;;;;;;;14.39;44.62;95043.31;4980062;28;19935;-77
2021/04/21 06:50:05;;;;;;;;;;;;;;;14.26;44.56;95051.56;4979179;28;19918;-77
2021/04/21 06:52:37;;;;;;;;;;;;;;;14.20;44.07;95052.56;5001648;28;20029;-76
2021/04/21 06:55:04;;;;;;;;;;;;;;;13.92;44.99;95050.19;4978488;28;19917;-77
2021/04/21 06:57:30;;;;;;;;;;;;;;;13.58;45.92;95055.59;4978254;28;19924;-77
2021/04/21 07:00:11;;;;;;;;;;;;;;;13.36;46.47;95055.59;4979913;28;19921;-77
2021/04/21 07:02:37;;;;;;;;;;;;;;;13.43;46.73;95058.00;4986855;28;19981;-77
2021/04/21 07:05:03;;;;;;;;;;;;;;;13.42;46.11;95061.66;4980207;28;19918;-77
2021/04/21 07:07:28;;;;;;;;;;;;;;;13.58;47.22;95060.03;5006400;28;20317;-77
2021/04/21 07:09:54;;;;;;;;;;;;;;;14.09;46.01;95056.13;5007625;28;19918;-78
2021/04/21 07:12:19;;;;;;;;;;;;;;;14.38;44.60;95056.63;4983305;28;19922;-77
2021/04/21 07:14:45;;;;;;;;;;;;;;;14.75;43.89;95061.91;4986606;28;19954;-78
2021/04/21 07:17:10;;;;;;;;;;;;;;;15.14;42.62;95067.69;4989358;28;19925;-78
2021/04/21 07:19:36;;;;;;;;;;;;;;;15.33;42.43;95054.94;4993955;28;19940;-78
2021/04/21 07:22:01;;;;;;;;;;;;;;;15.21;42.45;95057.75;4994977;28;20008;-78
2021/04/21 07:24:27;;;;;;;;;;;;;;;14.99;42.59;95057.91;4995365;28;19933;-78
2021/04/21 07:26:52;;;;;;;;;;;;;;;14.73;44.78;95066.63;5001505;28;19928;-79
2021/04/21 07:29:18;;;;;;;;;;;;;;;14.64;44.27;95060.25;5013996;28;19929;-78
2021/04/21 07:31:43;;;;;;;;;;;;;;;14.77;44.60;95061.66;4991819;28;19918;-79
2021/04/21 07:34:12;;;;;;;;;;;;;;;14.86;43.89;95054.94;4989587;28;19922;-78
2021/04/21 07:36:47;;;;;;;;;;;;;;;14.73;43.26;95061.38;4987170;28;19925;-78
2021/04/21 07:39:12;;;;;;;;;;;;;;;14.75;44.52;95066.38;4991837;28;19918;-79
2021/04/21 07:41:38;;;;;;;;;;;;;;;14.86;44.33;95071.44;5000535;28;19918;-78
2021/04/21 07:44:04;;;;;;;;;;;;;;;15.06;43.02;95068.16;4992190;28;19917;-78
2021/04/21 07:46:29;;;;;;;;;;;;;;;15.33;42.69;95062.81;5001445;28;19921;-78
2021/04/21 07:48:54;;;;;;;;;;;;;;;15.46;41.43;95064.97;4993145;28;20511;-78
2021/04/21 07:54:11;;;;;;;;;;;;;;;15.85;39.68;95062.75;4986032;28;19925;-79
2021/04/21 07:56:49;;;;;;;;;;;;;;;16.00;39.70;95067.25;4989761;28;19988;-80
2021/04/21 07:59:18;;;;;;;;;;;;;;;16.09;39.61;95068.31;4974161;28;19917;-79
2021/04/21 08:01:44;;;;;;;;;;;;;;;16.11;39.50;95066.25;4975673;28;19922;-82
2021/04/21 08:04:25;;;;;;;;;;;;;;;15.96;39.59;95062.81;4999279;28;20053;-82
2021/04/21 08:06:52;;;;;;;;;;;;;;;15.88;38.25;95066.69;4971590;28;20424;-77
2021/04/21 08:12:05;;;;;;;;;;;;;;;16.41;37.93;95062.84;5036791;22;19969;-79
2021/04/21 08:14:49;;;;;;;;;;;;;;;16.60;36.69;95072.84;4982844;28;19984;-79
2021/04/21 08:17:15;;;;;;;;;;;;;;;16.83;37.00;95056.56;4984898;28;20385;-78
2021/04/21 08:19:41;;;;;;;;;;;;;;;16.98;36.29;95071.53;4983677;28;19928;-77
2021/04/21 08:22:06;;;;;;;;;;;;;;;17.07;36.82;95062.84;5007194;28;20301;-77
2021/04/21 08:24:38;;;;;;;;;;;;;;;17.10;36.58;95072.03;4983624;28;19942;-78
2021/04/21 08:27:04;;;;;;;;;;;;;;;17.36;35.41;95076.16;4980611;28;19922;-78
2021/04/21 08:29:33;;;;;;;;;;;;;;;17.57;33.92;95065.59;4988537;28;20012;-78
2021/04/21 08:31:58;;;;;;;;;;;;;;;17.23;32.96;95066.22;4986037;28;19922;-80
2021/04/21 08:34:23;;;;;;;;;;;;;;;16.56;33.80;95067.31;4985548;28;19960;-80
2021/04/21 08:36:49;;;;;;;;;;;;;;;16.35;34.48;95061.28;4986446;28;20041;-80
2021/04/21 08:39:14;;;;;;;;;;;;;;;16.32;34.96;95058.41;4984096;28;20383;-80
2021/04/21 08:41:40;;;;;;;;;;;;;;;16.28;35.55;95070.47;4983256;28;19921;-79
2021/04/21 08:44:05;;;;;;;;;;;;;;;16.41;35.31;95054.19;4990612;28;19929;-80
2021/04/21 08:46:31;;;;;;;;;;;;;;;16.49;33.13;95056.31;4996176;28;19953;-81
2021/04/21 08:49:00;;;;;;;;;;;;;;;16.56;32.37;95066.53;4991232;28;19941;-80
2021/04/21 08:51:25;;;;;;;;;;;;;;;16.35;33.19;95050.00;4997331;28;19922;-81
2021/04/21 08:53:51;;;;;;;;;;;;;;;16.43;33.18;95045.03;5014662;28;19917;-80
2021/04/21 08:56:17;;;;;;;;;;;;;;;16.71;34.25;95043.72;5006779;28;19918;-80
2021/04/21 08:58:43;;;;;;;;;;;;;;;16.78;33.34;95036.38;5004578;28;19976;-81
2021/04/21 09:01:09;;;;;;;;;;;;;;;16.28;32.26;95033.72;5014033;28;20020;-80
2021/04/21 09:03:36;;;;;;;;;;;;;;;15.89;33.04;95023.69;4995300;28;20365;-81
2021/04/21 09:06:01;;;;;;;;;;;;;;;15.39;34.31;95032.16;4993701;28;19925;-81
2021/04/21 09:08:27;;;;;;;;;;;;;;;15.24;34.94;95030.25;5009217;28;19914;-80
2021/04/21 09:10:52;;;;;;;;;;;;;;;14.86;35.45;95029.53;5026810;23;20317;-80
2021/04/21 09:13:17;;;;;;;;;;;;;;;14.64;36.00;95027.06;4996580;28;19917;-81
2021/04/21 09:15:44;;;;;;;;;;;;;;;14.84;37.26;95026.38;4998733;28;20037;-81
2021/04/21 09:18:10;;;;;;;;;;;;;;;14.72;36.94;95028.41;4999002;28;19926;-80
2021/04/21 09:20:42;;;;;;;;;;;;;;;14.47;37.97;95028.22;4999789;28;20367;-82
2021/04/21 09:23:16;;;;;;;;;;;;;;;14.33;38.49;95019.97;4999745;28;20406;-81
2021/04/21 09:25:42;;;;;;;;;;;;;;;14.48;38.41;95021.94;4998674;28;19918;-81
2021/04/21 09:28:08;;;;;;;;;;;;;;;14.87;37.99;95027.72;4998551;28;19939;-81
2021/04/21 09:30:35;;;;;;;;;;;;;;;14.99;38.35;95038.78;4999674;28;20440;-81
2021/04/21 09:33:01;;;;;;;;;;;;;;;14.94;38.85;95036.91;4999716;28;19956;-82
2021/04/21 09:35:27;;;;;;;;;;;;;;;14.99;38.83;95044.81;4982698;28;19972;-81
2021/04/21 09:37:53;;;;;;;;;;;;;;;14.91;38.96;95042.66;4999461;28;19921;-81
2021/04/21 09:40:39;;;;;;;;;;;;;;;14.70;39.11;95052.22;5001061;28;19928;-82
2021/04/21 09:43:04;;;;;;;;;;;;;;;14.53;39.24;95053.41;5271167;22;20719;-80
2021/04/21 09:45:40;;;;;;;;;;;;;;;14.27;39.63;95063.59;4991383;28;20369;-80
2021/04/21 09:48:09;;;;;;;;;;;;;;;13.82;41.58;95056.88;4995243;28;19924;-80
2021/04/21 09:50:36;;;;;;;;;;;;;;;13.60;41.99;95077.03;5005686;28;19922;-80
2021/04/21 09:53:03;;;;;;;;;;;;;;;13.49;41.67;95070.88;4999897;28;19926;-82
2021/04/21 09:55:29;;;;;;;;;;;;;;;13.31;43.14;95080.84;5014351;28;19925;-81
2021/04/21 09:57:54;;;;;;;;;;;;;;;13.20;44.45;95079.94;4988363;28;19922;-81
2021/04/21 10:00:23;;;;;;;;;;;;;;;13.16;44.59;95084.00;4974930;28;19918;-81
2021/04/21 10:02:48;;;;;;;;;;;;;;;13.20;43.95;95082.56;4973606;28;19933;-81
2021/04/21 10:05:28;;;;;;;;;;;;;;;13.33;43.62;95090.00;4988782;28;19914;-81
2021/04/21 10:08:13;;;;;;;;;;;;;;;13.52;43.33;95083.47;4989709;28;19918;-82
2021/04/21 10:10:38;;;;;;;;;;;;;;;13.77;43.12;95087.41;5014033;28;19921;-82
2021/04/21 10:13:10;;;;;;;;;;;;;;;13.97;41.81;95084.22;4988631;28;19922;-81
2021/04/21 10:15:36;;;;;;;;;;;;;;;14.25;43.39;95084.00;4999032;28;19957;-82
2021/04/21 10:18:01;;;;;;;;;;;;;;;14.40;42.99;95072.88;5014479;28;19976;-82
2021/04/21 10:20:29;;;;;;;;;;;;;;;14.26;42.86;95080.34;5013042;28;19917;-82
2021/04/21 10:22:55;;;;;;;;;;;;;;;13.97;43.85;95073.75;5013162;28;19921;-82
2021/04/21 10:25:20;;;;;;;;;;;;;;;13.93;43.00;95062.22;4990084;28;19921;-81
2021/04/21 10:27:46;;;;;;;;;;;;;;;13.90;43.43;95067.97;5012217;28;19917;-83
2021/04/21 10:30:11;;;;;;;;;;;;;;;13.94;41.42;95066.41;5040364;23;19976;-83
2021/04/21 10:32:36;;;;;;;;;;;;;;;14.07;42.57;95063.41;5008680;28;19917;-81
2021/04/21 10:35:02;;;;;;;;;;;;;;;14.24;40.39;95058.88;5019226;28;19929;-81
2021/04/21 10:37:27;;;;;;;;;;;;;;;14.41;39.71;95059.53;5022703;28;19973;-80
2021/04/21 10:39:53;;;;;;;;;;;;;;;14.87;41.27;95046.03;5001245;28;19918;-81
2021/04/21 10:42:20;;;;;;;;;;;;;;;15.01;40.43;95037.50;5004801;28;19917;-81
2021/04/21 10:44:45;;;;;;;;;;;;;;;15.16;38.71;95038.63;5019994;28;20007;-81
2021/04/21 10:47:14;;;;;;;;;;;;;;;15.18;37.78;95036.53;5008992;28;19921;-81
2021/04/21 10:50:00;;;;;;;;;;;;;;;15.27;38.79;95051.50;5006787;28;19917;-81
2021/04/21 10:52:25;;;;;;;;;;;;;;;15.43;37.39;95048.94;5005732;28;20333;-81
2021/04/21 10:54:52;;;;;;;;;;;;;;;15.52;37.13;95053.44;5009454;28;19921;-81
2021/04/21 10:57:18;;;;;;;;;;;;;;;15.49;37.47;95048.72;5005566;28;19932;-81
2021/04/21 11:00:02;;;;;;;;;;;;;;;15.46;36.96;95053.69;5005913;28;19921;-81
2021/04/21 11:05:08;;;;;;;;;;;;;;;15.42;37.15;95048.16;5007673;28;19940;-80
2021/04/21 11:07:37;;;;;;;;;;;;;;;15.24;38.84;95043.34;5023101;28;19921;-80
2021/04/21 11:10:03;;;;;;;;;;;;;;;14.97;38.26;95046.91;5004179;28;19961;-82
2021/04/21 11:12:51;;;;;;;;;;;;;;;14.78;38.83;95058.78;5006256;28;19925;-82
2021/04/21 11:15:35;;;;;;;;;;;;;;;14.54;39.08;95041.88;5001835;28;19961;-82
2021/04/21 11:18:07;;;;;;;;;;;;;;;14.34;40.62;95042.50;5005690;28;19941;-82
2021/04/21 11:20:47;;;;;;;;;;;;;;;14.24;41.99;95037.94;5006525;28;19925;-81
2021/04/21 11:23:31;;;;;;;;;;;;;;;14.17;42.23;95047.03;5005968;28;19928;-82
2021/04/21 11:26:15;;;;;;;;;;;;;;;14.19;42.00;95040.53;5006222;28;19918;-82
2021/04/21 11:29:04;;;;;;;;;;;;;;;14.27;41.75;95047.13;5005445;28;19917;-82
2021/04/21 11:31:45;;;;;;;;;;;;;;;14.39;40.52;95039.91;5008420;28;19917;-82
2021/04/21 11:34:19;;;;;;;;;;;;;;;14.57;39.45;95029.09;5019548;23;19918;-82
2021/04/21 11:36:54;;;;;;;;;;;;;;;14.81;39.56;95036.59;5048185;22;19920;-82
2021/04/21 11:39:49;;;;;;;;;;;;;;;15.05;38.81;95032.53;4987845;28;19953;-80
2021/04/21 11:42:32;;;;;;;;;;;;;;;15.19;35.21;95028.41;4988700;28;19941;-82
2021/04/21 11:45:02;;;;;;;;;;;;;;;15.04;36.33;95019.69;4985841;28;20341;-81
2021/04/21 11:47:35;;;;;;;;;;;;;;;15.00;37.16;95025.44;4985985;28;20011;-82
2021/04/21 11:50:03;;;;;;;;;;;;;;;15.00;37.69;95025.44;4986629;28;19920;-81
2021/04/21 11:52:53;;;;;;;;;;;;;;;14.95;37.60;95012.28;4973891;28;20309;-80
2021/04/21 11:55:24;;;;;;;;;;;;;;;14.85;37.91;95027.97;5001417;28;19921;-81
2021/04/21 11:58:10;;;;;;;;;;;;;;;14.91;37.54;95032.19;4985815;28;20417;-81
2021/04/21 12:00:35;;;;;;;;;;;;;;;14.98;37.52;95022.28;4987135;28;19971;-82
2021/04/21 12:03:01;;;;;;;;;;;;;;;15.05;38.40;95010.78;5002478;28;20004;-80
2021/04/21 12:05:28;;;;;;;;;;;;;;;14.99;37.57;95018.63;4987238;28;19926;-82
2021/04/21 12:07:53;;;;;;;;;;;;;;;14.88;37.00;95018.81;4971968;28;19925;-82
2021/04/21 12:10:19;;;;;;;;;;;;;;;14.78;37.35;95016.91;4989011;28;19918;-82
2021/04/21 12:12:44;;;;;;;;;;;;;;;14.78;38.70;95021.34;4971387;28;19924;-78
2021/04/21 12:15:10;;;;;;;;;;;;;;;14.70;39.12;95030.47;4988161;28;19918;-78
2021/04/21 12:17:37;;;;;;;;;;;;;;;14.64;39.09;95031.47;4987591;28;20379;-81
2021/04/21 12:20:02;;;;;;;;;;;;;;;14.61;38.74;95021.50;4971332;28;19929;-79
2021/04/21 12:22:45;;;;;;;;;;;;;;;14.62;39.03;95023.09;4986383;28;20389;-81
2021/04/21 12:25:11;;;;;;;;;;;;;;;14.66;38.79;95016.31;4987556;28;19924;-80
2021/04/21 12:27:36;;;;;;;;;;;;;;;14.53;39.63;95012.31;4989956;28;19918;-79
2021/04/21 12:30:08;;;;;;;;;;;;;;;14.51;39.52;95011.00;5006781;28;20063;-79
2021/04/21 12:32:34;;;;;;;;;;;;;;;14.52;39.05;95007.34;4988042;28;19917;-78
2021/04/21 12:34:59;;;;;;;;;;;;;;;14.57;38.39;95007.34;5000802;28;19922;-82
2021/04/21 12:37:26;;;;;;;;;;;;;;;14.57;37.77;95004.75;4967086;28;19984;-80
2021/04/21 12:39:52;;;;;;;;;;;;;;;14.54;37.21;95000.00;4984205;28;19921;-77
2021/04/21 12:42:21;;;;;;;;;;;;;;;14.55;37.46;95001.59;4989505;28;19926;-79
2021/04/21 12:44:46;;;;;;;;;;;;;;;14.58;36.09;94998.47;4985489;28;20004;-77
2021/04/21 12:47:11;;;;;;;;;;;;;;;14.69;35.31;94997.50;4985651;28;20005;-79
2021/04/21 12:49:37;;;;;;;;;;;;;;;14.75;35.54;94999.09;4982673;28;19992;-79
2021/04/21 12:52:05;;;;;;;;;;;;;;;14.84;35.66;94989.75;4984717;28;19976;-78
2021/04/21 12:54:35;;;;;;;;;;;;;;;14.92;35.57;94986.63;4988002;28;19917;-78
2021/04/21 12:57:01;;;;;;;;;;;;;;;14.91;34.42;94982.44;4968815;28;20279;-78
2021/04/21 12:59:26;;;;;;;;;;;;;;;14.98;34.47;94983.00;4990155;28;20206;-78
2021/04/21 13:01:52;;;;;;;;;;;;;;;14.94;34.19;94974.06;4987318;28;19922;-78
2021/04/21 13:04:19;;;;;;;;;;;;;;;14.99;35.47;94976.72;4985806;28;19918;-79
2021/04/21 13:06:50;;;;;;;;;;;;;;;15.15;35.59;94972.34;4968237;28;20000;-78
2021/04/21 13:09:17;;;;;;;;;;;;;;;15.29;34.69;94970.00;4988220;28;19918;-78
2021/04/21 13:11:43;;;;;;;;;;;;;;;15.32;34.62;94965.06;5002017;28;19917;-78
2021/04/21 13:14:09;;;;;;;;;;;;;;;15.40;34.55;94960.38;4988621;28;19925;-78
2021/04/21 13:16:37;;;;;;;;;;;;;;;15.34;32.91;94946.47;4995200;28;19914;-78
2021/04/21 13:19:18;;;;;;;;;;;;;;;15.24;33.69;94951.66;4973702;28;19928;-78
2021/04/21 13:21:43;;;;;;;;;;;;;;;15.14;33.67;94951.66;4993719;28;19932;-78
2021/04/21 13:24:08;;;;;;;;;;;;;;;15.09;34.69;94947.16;4988772;28;19918;-78
2021/04/21 13:26:34;;;;;;;;;;;;;;;15.16;33.80;94960.81;5010279;28;19910;-78
2021/04/21 13:29:01;;;;;;;;;;;;;;;15.19;33.83;94951.66;5002156;28;19922;-78
2021/04/21 13:31:31;;;;;;;;;;;;;;;15.21;34.11;94957.44;5001605;28;19925;-79